sensor_id;sensor_type;location;lat;lon;timestamp;pressure;altitude;pressure_sealevel;temperature;humidity
74372;BME280;62885;51.374;6.170;2023-06-14T00:00:13;100978.84;;;20.10;43.70
74372;BME280;62885;51.374;6.170;2023-06-14T00:02:39;100980.38;;;20.04;44.01
74372;BME280;62885;51.374;6.170;2023-06-14T00:05:05;100974.28;;;19.86;44.34
74372;BME280;62885;51.374;6.170;2023-06-14T00:07:35;100977.16;;;19.77;44.59
74372;BME280;62885;51.374;6.170;2023-06-14T00:10:02;100980.38;;;19.80;44.54
74372;BME280;62885;51.374;6.170;2023-06-14T00:12:28;100977.53;;;19.74;44.70
74372;BME280;62885;51.374;6.170;2023-06-14T00:14:53;100979.22;;;19.83;44.46
74372;BME280;62885;51.374;6.170;2023-06-14T00:17:18;100973.63;;;19.84;44.37
74372;BME280;62885;51.374;6.170;2023-06-14T00:19:44;100980.72;;;19.77;44.28
74372;BME280;62885;51.374;6.170;2023-06-14T00:22:09;100980.91;;;19.67;44.70
74372;BME280;62885;51.374;6.170;2023-06-14T00:24:35;100978.88;;;19.61;44.70
74372;BME280;62885;51.374;6.170;2023-06-14T00:27:01;100986.00;;;19.62;44.53
74372;BME280;62885;51.374;6.170;2023-06-14T00:29:26;100987.34;;;19.58;45.08
74372;BME280;62885;51.374;6.170;2023-06-14T00:31:51;100988.53;;;19.56;44.87
74372;BME280;62885;51.374;6.170;2023-06-14T00:34:17;100986.66;;;19.48;44.93
74372;BME280;62885;51.374;6.170;2023-06-14T00:36:42;100996.16;;;19.52;45.12
74372;BME280;62885;51.374;6.170;2023-06-14T00:39:07;100997.81;;;19.37;45.18
74372;BME280;62885;51.374;6.170;2023-06-14T00:41:34;100992.56;;;19.44;45.01
74372;BME280;62885;51.374;6.170;2023-06-14T00:44:00;100985.06;;;19.38;45.12
74372;BME280;62885;51.374;6.170;2023-06-14T00:46:25;100992.53;;;19.36;45.02
74372;BME280;62885;51.374;6.170;2023-06-14T00:48:51;100995.78;;;19.39;45.14
74372;BME280;62885;51.374;6.170;2023-06-14T00:51:17;100984.03;;;19.31;45.34
74372;BME280;62885;51.374;6.170;2023-06-14T00:53:42;100988.78;;;19.28;45.03
74372;BME280;62885;51.374;6.170;2023-06-14T00:56:12;100989.81;;;19.36;45.01
74372;BME280;62885;51.374;6.170;2023-06-14T00:58:38;100994.56;;;19.34;44.82
74372;BME280;62885;51.374;6.170;2023-06-14T01:01:04;100995.53;;;19.16;45.56
74372;BME280;62885;51.374;6.170;2023-06-14T01:03:29;100993.47;;;19.10;45.82
74372;BME280;62885;51.374;6.170;2023-06-14T01:06:08;100990.94;;;19.09;45.73
74372;BME280;62885;51.374;6.170;2023-06-14T01:11:53;100990.50;;;18.79;45.98
74372;BME280;62885;51.374;6.170;2023-06-14T01:14:20;100992.84;;;18.74;45.90
74372;BME280;62885;51.374;6.170;2023-06-14T01:16:47;100997.13;;;18.85;45.94
74372;BME280;62885;51.374;6.170;2023-06-14T01:19:13;100997.69;;;18.63;46.12
74372;BME280;62885;51.374;6.170;2023-06-14T01:21:39;100993.06;;;18.55;46.43
74372;BME280;62885;51.374;6.170;2023-06-14T01:24:08;100985.53;;;18.49;46.32
74372;BME280;62885;51.374;6.170;2023-06-14T01:26:34;100988.75;;;18.44;46.75
74372;BME280;62885;51.374;6.170;2023-06-14T01:29:00;100992.72;;;18.32;47.07
74372;BME280;62885;51.374;6.170;2023-06-14T01:31:26;100996.22;;;18.25;47.50
74372;BME280;62885;51.374;6.170;2023-06-14T01:33:52;100994.97;;;18.11;47.59
74372;BME280;62885;51.374;6.170;2023-06-14T01:36:19;100998.19;;;18.15;47.53
74372;BME280;62885;51.374;6.170;2023-06-14T01:38:46;100993.66;;;18.23;47.38
74372;BME280;62885;51.374;6.170;2023-06-14T01:41:14;100995.22;;;18.26;47.26
74372;BME280;62885;51.374;6.170;2023-06-14T01:43:41;101003.50;;;18.24;47.23
74372;BME280;62885;51.374;6.170;2023-06-14T01:46:08;100992.81;;;17.97;47.73
74372;BME280;62885;51.374;6.170;2023-06-14T01:48:34;100994.53;;;17.98;47.99
74372;BME280;62885;51.374;6.170;2023-06-14T01:50:59;100993.91;;;18.04;47.94
74372;BME280;62885;51.374;6.170;2023-06-14T01:53:25;100993.06;;;18.12;47.71
74372;BME280;62885;51.374;6.170;2023-06-14T01:55:50;100990.38;;;18.12;47.88
74372;BME280;62885;51.374;6.170;2023-06-14T01:58:19;100987.31;;;17.89;48.45
74372;BME280;62885;51.374;6.170;2023-06-14T02:00:44;100993.44;;;17.91;48.56
74372;BME280;62885;51.374;6.170;2023-06-14T02:03:10;100994.44;;;17.90;48.36
74372;BME280;62885;51.374;6.170;2023-06-14T02:05:37;100986.72;;;17.77;48.90
74372;BME280;62885;51.374;6.170;2023-06-14T02:08:04;100990.22;;;17.70;49.44
74372;BME280;62885;51.374;6.170;2023-06-14T02:10:29;100989.91;;;17.73;49.36
74372;BME280;62885;51.374;6.170;2023-06-14T02:12:55;100998.03;;;17.73;49.55
74372;BME280;62885;51.374;6.170;2023-06-14T02:15:20;100997.50;;;17.69;49.46
74372;BME280;62885;51.374;6.170;2023-06-14T02:17:47;100993.00;;;17.60;49.75
74372;BME280;62885;51.374;6.170;2023-06-14T02:20:12;100993.50;;;17.46;50.29
74372;BME280;62885;51.374;6.170;2023-06-14T02:22:38;100993.56;;;17.54;50.32
74372;BME280;62885;51.374;6.170;2023-06-14T02:25:04;100995.00;;;17.58;50.40
74372;BME280;62885;51.374;6.170;2023-06-14T02:27:29;100993.75;;;17.52;50.32
74372;BME280;62885;51.374;6.170;2023-06-14T02:29:54;101003.34;;;17.47;50.44
74372;BME280;62885;51.374;6.170;2023-06-14T02:32:20;101000.78;;;17.45;50.44
74372;BME280;62885;51.374;6.170;2023-06-14T02:34:45;100999.78;;;17.46;50.60
74372;BME280;62885;51.374;6.170;2023-06-14T02:37:15;101004.59;;;17.52;50.59
74372;BME280;62885;51.374;6.170;2023-06-14T02:39:40;101008.13;;;17.53;51.07
74372;BME280;62885;51.374;6.170;2023-06-14T02:42:06;101007.28;;;17.35;51.13
74372;BME280;62885;51.374;6.170;2023-06-14T02:44:31;101001.78;;;17.44;50.77
74372;BME280;62885;51.374;6.170;2023-06-14T02:46:57;101001.94;;;17.43;50.90
74372;BME280;62885;51.374;6.170;2023-06-14T02:49:23;101002.72;;;17.35;50.97
74372;BME280;62885;51.374;6.170;2023-06-14T02:51:49;101012.06;;;17.41;51.18
74372;BME280;62885;51.374;6.170;2023-06-14T02:54:14;101013.59;;;17.43;51.49
74372;BME280;62885;51.374;6.170;2023-06-14T02:56:40;101007.53;;;17.14;51.76
74372;BME280;62885;51.374;6.170;2023-06-14T02:59:06;101017.53;;;17.31;51.38
74372;BME280;62885;51.374;6.170;2023-06-14T03:01:32;101011.03;;;17.42;50.83
74372;BME280;62885;51.374;6.170;2023-06-14T03:04:03;101015.69;;;17.32;50.96
74372;BME280;62885;51.374;6.170;2023-06-14T03:06:29;101020.94;;;17.33;51.15
74372;BME280;62885;51.374;6.170;2023-06-14T03:08:59;101027.69;;;17.29;51.41
74372;BME280;62885;51.374;6.170;2023-06-14T03:11:26;101027.88;;;17.18;51.52
74372;BME280;62885;51.374;6.170;2023-06-14T03:13:53;101028.72;;;17.18;51.92
74372;BME280;62885;51.374;6.170;2023-06-14T03:16:19;101028.19;;;17.15;51.99
74372;BME280;62885;51.374;6.170;2023-06-14T03:18:52;101033.72;;;17.13;52.14
74372;BME280;62885;51.374;6.170;2023-06-14T03:21:18;101037.09;;;17.25;51.80
74372;BME280;62885;51.374;6.170;2023-06-14T03:23:45;101035.16;;;17.17;51.81
74372;BME280;62885;51.374;6.170;2023-06-14T03:26:11;101033.47;;;17.07;51.88
74372;BME280;62885;51.374;6.170;2023-06-14T03:28:40;101038.41;;;17.21;51.47
74372;BME280;62885;51.374;6.170;2023-06-14T03:31:06;101040.41;;;17.19;52.01
74372;BME280;62885;51.374;6.170;2023-06-14T03:33:31;101041.84;;;17.13;51.68
74372;BME280;62885;51.374;6.170;2023-06-14T03:35:59;101040.13;;;16.95;52.13
74372;BME280;62885;51.374;6.170;2023-06-14T03:38:24;101042.44;;;17.07;52.06
74372;BME280;62885;51.374;6.170;2023-06-14T03:40:50;101050.81;;;17.14;51.67
74372;BME280;62885;51.374;6.170;2023-06-14T03:43:15;101052.13;;;17.10;51.73
74372;BME280;62885;51.374;6.170;2023-06-14T03:45:41;101056.03;;;16.98;52.50
74372;BME280;62885;51.374;6.170;2023-06-14T03:48:06;101059.72;;;17.06;52.00
74372;BME280;62885;51.374;6.170;2023-06-14T03:50:33;101058.84;;;17.06;51.90
74372;BME280;62885;51.374;6.170;2023-06-14T03:52:59;101064.69;;;17.01;52.10
74372;BME280;62885;51.374;6.170;2023-06-14T03:55:26;101056.28;;;17.04;52.35
74372;BME280;62885;51.374;6.170;2023-06-14T03:57:52;101062.00;;;17.01;52.23
74372;BME280;62885;51.374;6.170;2023-06-14T04:00:18;101063.28;;;16.97;52.12
74372;BME280;62885;51.374;6.170;2023-06-14T04:02:43;101054.19;;;16.98;52.43
74372;BME280;62885;51.374;6.170;2023-06-14T04:05:10;101055.03;;;16.99;52.18
74372;BME280;62885;51.374;6.170;2023-06-14T04:07:35;101065.41;;;17.03;52.71
74372;BME280;62885;51.374;6.170;2023-06-14T04:10:13;101065.34;;;17.13;52.30
74372;BME280;62885;51.374;6.170;2023-06-14T04:12:39;101074.28;;;17.23;51.84
74372;BME280;62885;51.374;6.170;2023-06-14T04:15:05;101063.94;;;17.36;51.47
74372;BME280;62885;51.374;6.170;2023-06-14T04:17:31;101068.59;;;17.44;50.81
74372;BME280;62885;51.374;6.170;2023-06-14T04:19:58;101071.03;;;17.47;50.52
74372;BME280;62885;51.374;6.170;2023-06-14T04:22:25;101072.75;;;17.83;49.69
74372;BME280;62885;51.374;6.170;2023-06-14T04:24:53;101081.75;;;18.19;48.61
74372;BME280;62885;51.374;6.170;2023-06-14T04:27:20;101079.22;;;18.43;47.79
74372;BME280;62885;51.374;6.170;2023-06-14T04:29:46;101078.22;;;18.62;47.66
74372;BME280;62885;51.374;6.170;2023-06-14T04:32:14;101079.38;;;18.60;47.62
74372;BME280;62885;51.374;6.170;2023-06-14T04:34:40;101079.00;;;18.80;47.00
74372;BME280;62885;51.374;6.170;2023-06-14T04:37:06;101084.72;;;19.03;46.32
74372;BME280;62885;51.374;6.170;2023-06-14T04:39:33;101085.31;;;19.23;45.78
74372;BME280;62885;51.374;6.170;2023-06-14T04:41:58;101085.31;;;19.23;45.62
74372;BME280;62885;51.374;6.170;2023-06-14T04:44:25;101086.09;;;19.07;45.72
74372;BME280;62885;51.374;6.170;2023-06-14T04:46:56;101088.56;;;19.35;45.17
74372;BME280;62885;51.374;6.170;2023-06-14T04:49:21;101088.03;;;19.65;44.65
74372;BME280;62885;51.374;6.170;2023-06-14T04:51:48;101089.19;;;19.54;44.67
74372;BME280;62885;51.374;6.170;2023-06-14T04:54:22;101096.78;;;20.01;43.81
74372;BME280;62885;51.374;6.170;2023-06-14T04:56:50;101098.50;;;19.52;45.14
74372;BME280;62885;51.374;6.170;2023-06-14T04:59:15;101103.75;;;20.12;43.81
74372;BME280;62885;51.374;6.170;2023-06-14T05:01:45;101102.06;;;20.51;42.55
74372;BME280;62885;51.374;6.170;2023-06-14T05:04:17;101101.16;;;19.94;44.13
74372;BME280;62885;51.374;6.170;2023-06-14T05:06:43;101106.28;;;20.05;43.95
74372;BME280;62885;51.374;6.170;2023-06-14T05:09:14;101107.34;;;20.44;43.20
74372;BME280;62885;51.374;6.170;2023-06-14T05:11:40;101104.75;;;20.27;43.21
74372;BME280;62885;51.374;6.170;2023-06-14T05:14:07;101104.25;;;20.15;43.69
74372;BME280;62885;51.374;6.170;2023-06-14T05:16:33;101117.75;;;19.75;44.41
74372;BME280;62885;51.374;6.170;2023-06-14T05:18:58;101121.91;;;19.95;44.60
74372;BME280;62885;51.374;6.170;2023-06-14T05:21:24;101123.06;;;19.92;44.07
74372;BME280;62885;51.374;6.170;2023-06-14T05:23:49;101126.03;;;20.64;42.25
74372;BME280;62885;51.374;6.170;2023-06-14T05:26:16;101123.16;;;20.49;42.56
74372;BME280;62885;51.374;6.170;2023-06-14T05:28:41;101120.25;;;20.50;42.62
74372;BME280;62885;51.374;6.170;2023-06-14T05:31:06;101132.81;;;20.68;42.16
74372;BME280;62885;51.374;6.170;2023-06-14T05:33:32;101124.94;;;20.97;41.98
74372;BME280;62885;51.374;6.170;2023-06-14T05:35:57;101124.19;;;20.48;42.75
74372;BME280;62885;51.374;6.170;2023-06-14T05:38:22;101125.00;;;20.81;41.79
74372;BME280;62885;51.374;6.170;2023-06-14T05:40:48;101118.41;;;20.59;42.46
74372;BME280;62885;51.374;6.170;2023-06-14T05:43:13;101124.84;;;20.58;42.16
74372;BME280;62885;51.374;6.170;2023-06-14T05:45:38;101135.56;;;20.60;41.53
74372;BME280;62885;51.374;6.170;2023-06-14T05:48:04;101135.72;;;20.50;42.11
74372;BME280;62885;51.374;6.170;2023-06-14T05:50:30;101135.94;;;20.32;43.03
74372;BME280;62885;51.374;6.170;2023-06-14T05:52:55;101136.75;;;20.57;42.27
74372;BME280;62885;51.374;6.170;2023-06-14T05:55:21;101145.72;;;21.06;41.37
74372;BME280;62885;51.374;6.170;2023-06-14T05:57:47;101145.41;;;20.69;42.23
74372;BME280;62885;51.374;6.170;2023-06-14T06:00:13;101148.63;;;20.80;41.45
74372;BME280;62885;51.374;6.170;2023-06-14T06:02:43;101151.72;;;20.45;41.76
74372;BME280;62885;51.374;6.170;2023-06-14T06:05:09;101153.91;;;20.82;41.25
74372;BME280;62885;51.374;6.170;2023-06-14T06:07:36;101145.59;;;20.59;41.62
74372;BME280;62885;51.374;6.170;2023-06-14T06:10:02;101152.78;;;21.79;39.65
74372;BME280;62885;51.374;6.170;2023-06-14T06:12:27;101154.03;;;21.21;40.68
74372;BME280;62885;51.374;6.170;2023-06-14T06:14:52;101149.47;;;21.99;39.14
74372;BME280;62885;51.374;6.170;2023-06-14T06:17:18;101162.03;;;22.77;37.56
74372;BME280;62885;51.374;6.170;2023-06-14T06:19:43;101165.84;;;24.50;34.39
74372;BME280;62885;51.374;6.170;2023-06-14T06:22:09;101163.75;;;25.02;33.02
74372;BME280;62885;51.374;6.170;2023-06-14T06:24:34;101162.84;;;23.73;35.05
74372;BME280;62885;51.374;6.170;2023-06-14T06:26:59;101172.50;;;22.42;37.66
74372;BME280;62885;51.374;6.170;2023-06-14T06:29:25;101176.34;;;22.33;37.93
74372;BME280;62885;51.374;6.170;2023-06-14T06:31:50;101179.38;;;22.38;37.88
74372;BME280;62885;51.374;6.170;2023-06-14T06:34:16;101176.81;;;22.37;38.05
74372;BME280;62885;51.374;6.170;2023-06-14T06:36:41;101168.31;;;22.09;38.54
74372;BME280;62885;51.374;6.170;2023-06-14T06:39:07;101182.97;;;22.08;37.85
74372;BME280;62885;51.374;6.170;2023-06-14T06:41:37;101181.41;;;21.83;38.48
74372;BME280;62885;51.374;6.170;2023-06-14T06:44:05;101179.91;;;21.72;38.29
74372;BME280;62885;51.374;6.170;2023-06-14T06:46:32;101191.53;;;22.05;38.13
74372;BME280;62885;51.374;6.170;2023-06-14T06:48:57;101191.09;;;22.47;37.35
74372;BME280;62885;51.374;6.170;2023-06-14T06:51:23;101188.13;;;22.03;37.62
74372;BME280;62885;51.374;6.170;2023-06-14T06:53:58;101189.34;;;22.00;38.18
74372;BME280;62885;51.374;6.170;2023-06-14T06:56:23;101197.25;;;22.64;36.98
74372;BME280;62885;51.374;6.170;2023-06-14T06:58:50;101204.78;;;22.39;37.24
74372;BME280;62885;51.374;6.170;2023-06-14T07:01:16;101212.66;;;22.34;36.77
74372;BME280;62885;51.374;6.170;2023-06-14T07:03:42;101206.72;;;21.99;37.66
74372;BME280;62885;51.374;6.170;2023-06-14T07:06:07;101209.75;;;22.35;37.09
74372;BME280;62885;51.374;6.170;2023-06-14T07:08:32;101206.44;;;23.08;35.38
74372;BME280;62885;51.374;6.170;2023-06-14T07:10:58;101212.25;;;23.72;34.10
74372;BME280;62885;51.374;6.170;2023-06-14T07:13:23;101215.56;;;24.33;33.10
74372;BME280;62885;51.374;6.170;2023-06-14T07:15:49;101214.22;;;22.97;35.56
74372;BME280;62885;51.374;6.170;2023-06-14T07:18:14;101217.84;;;22.21;37.00
74372;BME280;62885;51.374;6.170;2023-06-14T07:20:40;101212.38;;;21.90;37.25
74372;BME280;62885;51.374;6.170;2023-06-14T07:23:05;101221.91;;;21.86;37.89
74372;BME280;62885;51.374;6.170;2023-06-14T07:25:31;101201.81;;;21.87;37.81
74372;BME280;62885;51.374;6.170;2023-06-14T07:27:56;101212.63;;;22.11;37.31
74372;BME280;62885;51.374;6.170;2023-06-14T07:30:21;101221.06;;;21.85;37.46
74372;BME280;62885;51.374;6.170;2023-06-14T07:32:51;101213.41;;;21.89;37.40
74372;BME280;62885;51.374;6.170;2023-06-14T07:35:17;101229.38;;;21.92;37.07
74372;BME280;62885;51.374;6.170;2023-06-14T07:37:43;101218.16;;;21.87;37.50
74372;BME280;62885;51.374;6.170;2023-06-14T07:40:09;101217.94;;;22.04;36.74
74372;BME280;62885;51.374;6.170;2023-06-14T07:42:37;101228.81;;;22.13;36.78
74372;BME280;62885;51.374;6.170;2023-06-14T07:45:04;101233.38;;;22.20;36.41
74372;BME280;62885;51.374;6.170;2023-06-14T07:47:29;101230.44;;;22.30;36.31
74372;BME280;62885;51.374;6.170;2023-06-14T07:49:55;101234.25;;;22.43;35.92
74372;BME280;62885;51.374;6.170;2023-06-14T07:52:21;101225.84;;;22.22;34.42
74372;BME280;62885;51.374;6.170;2023-06-14T07:54:47;101223.53;;;22.42;34.36
74372;BME280;62885;51.374;6.170;2023-06-14T07:57:13;101227.94;;;22.43;34.09
74372;BME280;62885;51.374;6.170;2023-06-14T07:59:38;101243.81;;;22.39;33.24
74372;BME280;62885;51.374;6.170;2023-06-14T08:02:04;101231.50;;;22.43;33.08
74372;BME280;62885;51.374;6.170;2023-06-14T08:04:31;101236.16;;;22.12;32.95
74372;BME280;62885;51.374;6.170;2023-06-14T08:06:57;101238.69;;;22.13;33.85
74372;BME280;62885;51.374;6.170;2023-06-14T08:09:23;101243.53;;;22.34;33.29
74372;BME280;62885;51.374;6.170;2023-06-14T08:11:50;101236.31;;;22.41;33.73
74372;BME280;62885;51.374;6.170;2023-06-14T08:14:15;101235.03;;;22.52;33.34
74372;BME280;62885;51.374;6.170;2023-06-14T08:16:40;101233.50;;;22.27;32.73
74372;BME280;62885;51.374;6.170;2023-06-14T08:19:06;101235.78;;;22.46;32.52
74372;BME280;62885;51.374;6.170;2023-06-14T08:21:31;101229.28;;;22.24;31.80
74372;BME280;62885;51.374;6.170;2023-06-14T08:23:58;101237.34;;;22.40;32.21
74372;BME280;62885;51.374;6.170;2023-06-14T08:26:24;101232.75;;;22.41;31.97
74372;BME280;62885;51.374;6.170;2023-06-14T08:28:53;101247.66;;;22.30;32.13
74372;BME280;62885;51.374;6.170;2023-06-14T08:31:20;101236.91;;;22.29;29.95
74372;BME280;62885;51.374;6.170;2023-06-14T08:33:45;101242.09;;;22.46;30.11
74372;BME280;62885;51.374;6.170;2023-06-14T08:36:10;101239.50;;;22.22;30.82
74372;BME280;62885;51.374;6.170;2023-06-14T08:38:37;101242.53;;;22.27;31.18
74372;BME280;62885;51.374;6.170;2023-06-14T08:41:04;101252.31;;;22.44;30.41
74372;BME280;62885;51.374;6.170;2023-06-14T08:43:31;101249.13;;;22.64;30.29
74372;BME280;62885;51.374;6.170;2023-06-14T08:46:03;101239.78;;;22.35;30.94
74372;BME280;62885;51.374;6.170;2023-06-14T08:48:29;101238.56;;;22.83;30.43
74372;BME280;62885;51.374;6.170;2023-06-14T08:50:59;101248.16;;;23.02;30.90
74372;BME280;62885;51.374;6.170;2023-06-14T08:53:32;101245.06;;;23.05;30.55
74372;BME280;62885;51.374;6.170;2023-06-14T08:56:02;101233.34;;;22.97;29.31
74372;BME280;62885;51.374;6.170;2023-06-14T08:58:30;101237.09;;;22.96;29.97
74372;BME280;62885;51.374;6.170;2023-06-14T09:00:57;101232.63;;;23.03;30.85
74372;BME280;62885;51.374;6.170;2023-06-14T09:03:23;101238.38;;;23.08;30.16
74372;BME280;62885;51.374;6.170;2023-06-14T09:05:56;101233.00;;;23.14;30.66
74372;BME280;62885;51.374;6.170;2023-06-14T09:08:24;101253.47;;;23.56;29.53
74372;BME280;62885;51.374;6.170;2023-06-14T09:10:50;101227.84;;;23.19;29.48
74372;BME280;62885;51.374;6.170;2023-06-14T09:13:17;101230.00;;;23.09;29.43
74372;BME280;62885;51.374;6.170;2023-06-14T09:15:43;101233.88;;;23.15;29.75
74372;BME280;62885;51.374;6.170;2023-06-14T09:18:08;101236.81;;;23.43;29.87
74372;BME280;62885;51.374;6.170;2023-06-14T09:20:34;101250.31;;;23.07;29.85
74372;BME280;62885;51.374;6.170;2023-06-14T09:23:00;101245.81;;;23.14;29.57
74372;BME280;62885;51.374;6.170;2023-06-14T09:25:26;101224.63;;;23.16;30.01
74372;BME280;62885;51.374;6.170;2023-06-14T09:27:52;101243.53;;;23.40;30.53
74372;BME280;62885;51.374;6.170;2023-06-14T09:30:20;101242.41;;;23.49;30.17
74372;BME280;62885;51.374;6.170;2023-06-14T09:32:45;101237.38;;;23.23;30.68
74372;BME280;62885;51.374;6.170;2023-06-14T09:35:11;101253.78;;;23.01;31.10
74372;BME280;62885;51.374;6.170;2023-06-14T09:37:36;101239.91;;;23.10;31.89
74372;BME280;62885;51.374;6.170;2023-06-14T09:40:05;101247.63;;;23.21;30.37
74372;BME280;62885;51.374;6.170;2023-06-14T09:42:32;101258.91;;;23.18;31.63
74372;BME280;62885;51.374;6.170;2023-06-14T09:45:01;101256.69;;;23.37;32.03
74372;BME280;62885;51.374;6.170;2023-06-14T09:47:27;101262.59;;;23.11;31.91
74372;BME280;62885;51.374;6.170;2023-06-14T09:49:52;101253.78;;;23.38;32.67
74372;BME280;62885;51.374;6.170;2023-06-14T09:52:22;101249.22;;;23.16;32.31
74372;BME280;62885;51.374;6.170;2023-06-14T09:54:48;101258.78;;;22.97;30.87
74372;BME280;62885;51.374;6.170;2023-06-14T09:57:21;101273.53;;;23.11;30.47
74372;BME280;62885;51.374;6.170;2023-06-14T09:59:47;101254.91;;;23.29;31.33
74372;BME280;62885;51.374;6.170;2023-06-14T10:02:24;101270.06;;;23.17;32.05
74372;BME280;62885;51.374;6.170;2023-06-14T10:04:57;101254.59;;;22.86;33.57
74372;BME280;62885;51.374;6.170;2023-06-14T10:07:26;101256.75;;;23.14;33.35
74372;BME280;62885;51.374;6.170;2023-06-14T10:09:55;101255.59;;;23.08;32.95
74372;BME280;62885;51.374;6.170;2023-06-14T10:12:20;101254.31;;;23.19;31.28
74372;BME280;62885;51.374;6.170;2023-06-14T10:14:50;101255.75;;;22.92;31.83
74372;BME280;62885;51.374;6.170;2023-06-14T10:20:06;101257.47;;;22.93;32.19
74372;BME280;62885;51.374;6.170;2023-06-14T10:22:40;101274.50;;;22.95;32.12
74372;BME280;62885;51.374;6.170;2023-06-14T10:25:12;101259.47;;;23.14;32.99
74372;BME280;62885;51.374;6.170;2023-06-14T10:27:38;101272.22;;;23.21;33.26
74372;BME280;62885;51.374;6.170;2023-06-14T10:30:05;101279.66;;;22.90;33.79
74372;BME280;62885;51.374;6.170;2023-06-14T10:32:32;101249.81;;;22.88;33.69
74372;BME280;62885;51.374;6.170;2023-06-14T10:35:05;101251.19;;;22.62;34.28
74372;BME280;62885;51.374;6.170;2023-06-14T10:37:32;101239.06;;;22.64;34.32
74372;BME280;62885;51.374;6.170;2023-06-14T10:39:57;101239.50;;;23.13;34.08
74372;BME280;62885;51.374;6.170;2023-06-14T10:42:27;101247.72;;;22.68;34.63
74372;BME280;62885;51.374;6.170;2023-06-14T10:44:57;101245.47;;;23.17;34.01
74372;BME280;62885;51.374;6.170;2023-06-14T10:47:32;101238.69;;;23.42;33.83
74372;BME280;62885;51.374;6.170;2023-06-14T10:50:06;101247.59;;;23.59;33.92
74372;BME280;62885;51.374;6.170;2023-06-14T10:52:38;101244.22;;;23.19;33.29
74372;BME280;62885;51.374;6.170;2023-06-14T10:55:09;101247.94;;;23.26;32.80
74372;BME280;62885;51.374;6.170;2023-06-14T11:00:07;101260.72;;;23.11;32.27
74372;BME280;62885;51.374;6.170;2023-06-14T11:05:54;101271.13;;;22.93;32.06
74372;BME280;62885;51.374;6.170;2023-06-14T11:11:07;101264.63;;;22.94;32.99
74372;BME280;62885;51.374;6.170;2023-06-14T11:13:32;101251.81;;;22.95;32.71
74372;BME280;62885;51.374;6.170;2023-06-14T11:15:58;101250.75;;;22.96;32.25
74372;BME280;62885;51.374;6.170;2023-06-14T11:18:24;101240.00;;;23.31;32.01
74372;BME280;62885;51.374;6.170;2023-06-14T11:20:50;101253.06;;;23.07;32.83
74372;BME280;62885;51.374;6.170;2023-06-14T11:23:16;101253.00;;;23.15;32.57
74372;BME280;62885;51.374;6.170;2023-06-14T11:25:41;101246.03;;;23.42;32.14
74372;BME280;62885;51.374;6.170;2023-06-14T11:28:07;101245.72;;;23.59;31.50
74372;BME280;62885;51.374;6.170;2023-06-14T11:30:32;101237.56;;;23.22;31.78
74372;BME280;62885;51.374;6.170;2023-06-14T11:32:58;101243.38;;;23.56;31.84
74372;BME280;62885;51.374;6.170;2023-06-14T11:35:24;101238.84;;;23.78;31.26
74372;BME280;62885;51.374;6.170;2023-06-14T11:37:57;101241.31;;;23.58;31.54
74372;BME280;62885;51.374;6.170;2023-06-14T11:40:26;101245.34;;;23.77;31.05
74372;BME280;62885;51.374;6.170;2023-06-14T11:43:00;101231.94;;;23.82;31.00
74372;BME280;62885;51.374;6.170;2023-06-14T11:45:26;101240.84;;;23.69;30.98
74372;BME280;62885;51.374;6.170;2023-06-14T11:47:54;101238.38;;;23.60;30.95
74372;BME280;62885;51.374;6.170;2023-06-14T11:50:21;101236.19;;;23.55;31.11
74372;BME280;62885;51.374;6.170;2023-06-14T11:52:53;101248.66;;;23.87;31.15
74372;BME280;62885;51.374;6.170;2023-06-14T11:55:19;101249.22;;;23.68;30.94
74372;BME280;62885;51.374;6.170;2023-06-14T11:57:46;101253.34;;;23.49;31.05
74372;BME280;62885;51.374;6.170;2023-06-14T12:00:12;101237.72;;;23.87;31.49
74372;BME280;62885;51.374;6.170;2023-06-14T12:02:38;101245.94;;;23.58;31.14
74372;BME280;62885;51.374;6.170;2023-06-14T12:05:06;101240.47;;;23.58;30.65
74372;BME280;62885;51.374;6.170;2023-06-14T12:07:38;101242.09;;;23.44;31.01
74372;BME280;62885;51.374;6.170;2023-06-14T12:10:06;101254.97;;;23.58;30.69
74372;BME280;62885;51.374;6.170;2023-06-14T12:12:36;101249.75;;;23.49;30.87
74372;BME280;62885;51.374;6.170;2023-06-14T12:15:07;101257.34;;;23.76;30.50
74372;BME280;62885;51.374;6.170;2023-06-14T12:17:34;101241.66;;;23.99;30.77
74372;BME280;62885;51.374;6.170;2023-06-14T12:20:05;101235.00;;;23.58;31.00
74372;BME280;62885;51.374;6.170;2023-06-14T12:22:37;101233.94;;;23.73;30.98
74372;BME280;62885;51.374;6.170;2023-06-14T12:25:04;101221.56;;;23.78;30.71
74372;BME280;62885;51.374;6.170;2023-06-14T12:27:29;101237.00;;;24.14;30.67
74372;BME280;62885;51.374;6.170;2023-06-14T12:29:59;101232.97;;;24.10;30.23
74372;BME280;62885;51.374;6.170;2023-06-14T12:32:24;101232.84;;;24.19;30.12
74372;BME280;62885;51.374;6.170;2023-06-14T12:34:50;101229.16;;;24.26;30.38
74372;BME280;62885;51.374;6.170;2023-06-14T12:37:15;101240.72;;;23.92;30.81
74372;BME280;62885;51.374;6.170;2023-06-14T12:39:41;101228.25;;;24.04;31.00
74372;BME280;62885;51.374;6.170;2023-06-14T12:42:06;101231.84;;;24.05;31.04
74372;BME280;62885;51.374;6.170;2023-06-14T12:44:32;101223.69;;;24.11;30.76
74372;BME280;62885;51.374;6.170;2023-06-14T12:47:00;101222.34;;;24.37;30.50
74372;BME280;62885;51.374;6.170;2023-06-14T12:49:26;101232.19;;;24.17;30.44
74372;BME280;62885;51.374;6.170;2023-06-14T12:51:51;101236.34;;;24.70;29.23
74372;BME280;62885;51.374;6.170;2023-06-14T12:54:16;101234.28;;;24.50;29.16
74372;BME280;62885;51.374;6.170;2023-06-14T12:56:42;101227.09;;;24.71;29.30
74372;BME280;62885;51.374;6.170;2023-06-14T12:59:10;101220.44;;;24.59;29.55
74372;BME280;62885;51.374;6.170;2023-06-14T13:01:37;101210.59;;;24.43;29.33